Matsushima — 3ENU9 — position and weather

sailwx.info

Track history (hours):
 
Tides and Currents Weather Stations Pressure Air Temp Water Temp Dewpoint Dewpoint Depression Visibility Wind Speed Wind Dir Waves Ship Positions

Matsushima

Last reported at 2018-Apr-23 06:59 UTC. Time now 2018-Apr-23 07:19 UTC.
Position N 34°36' E 135°23'.

Length 125 m; draft 5.5 m.

MMSI: 352835000.

Date/timePositionNaut miles runAvg speedWind from/ knotsBaromVisibWave heightAir tempDewpointWater temp
2018-Apr-23 06:59N 34°36' E 135°23'0 0.0
2018-Apr-23 06:29N 34°36' E 135°23'0 0.1
2018-Apr-23 05:58N 34°36' E 135°23'0 0.1
2018-Apr-23 05:28N 34°36' E 135°23'0 0.1
2018-Apr-23 04:58N 34°36' E 135°23'0 0.0
2018-Apr-23 04:28N 34°36' E 135°23'0 0.1
2018-Apr-23 03:58N 34°36' E 135°23'0 0.0
2018-Apr-23 03:28N 34°36' E 135°23'0 0.0
2018-Apr-23 02:59N 34°36' E 135°23'0 0.0
2018-Apr-23 02:28N 34°36' E 135°23'0 0.0
2018-Apr-23 01:59N 34°36' E 135°23'0 0.0
2018-Apr-23 01:29N 34°36' E 135°23'0 0.0
2018-Apr-23 00:58N 34°36' E 135°23'0 0.1
2018-Apr-23 00:28N 34°36' E 135°22'0 0.1
2018-Apr-22 23:58N 34°36' E 135°22'0 0.1
2018-Apr-22 23:28N 34°36' E 135°22'0 0.1
2018-Apr-22 22:58N 34°36' E 135°22'0 0.0
2018-Apr-22 22:28N 34°36' E 135°22'0 0.1
2018-Apr-22 21:58N 34°36' E 135°22'0 0.0
2018-Apr-22 21:29N 34°36' E 135°22'0 0.0
2018-Apr-22 20:58N 34°36' E 135°22'0 0.0
2018-Apr-22 20:28N 34°36' E 135°22'0 0.1
2018-Apr-22 19:58N 34°36' E 135°22'0 0.0
2018-Apr-22 19:28N 34°36' E 135°22'0 0.0
2018-Apr-22 18:58N 34°36' E 135°22'0 0.0
2018-Apr-22 18:28N 34°36' E 135°22'0 0.1
2018-Apr-22 17:56N 34°36' E 135°23'0 0.1
2018-Apr-22 17:28N 34°36' E 135°23'0 0.1
2018-Apr-22 16:58N 34°36' E 135°23'0 0.1
2018-Apr-22 16:28N 34°36' E 135°23'0 0.1
2018-Apr-22 15:58N 34°36' E 135°22'0 0.0
2018-Apr-22 15:28N 34°36' E 135°22'0 0.1
2018-Apr-22 14:58N 34°36' E 135°23'0 0.0
2018-Apr-22 14:28N 34°36' E 135°23'0 0.0
2018-Apr-22 13:58N 34°36' E 135°23'0 0.0
2018-Apr-22 13:28N 34°36' E 135°23'0 0.0
2018-Apr-22 12:58N 34°36' E 135°23'0 0.0
2018-Apr-22 12:28N 34°36' E 135°23'0 0.0
2018-Apr-22 11:58N 34°36' E 135°23'0 0.0
2018-Apr-22 11:28N 34°36' E 135°23'0 0.0
2018-Apr-22 10:58N 34°36' E 135°23'0 0.0
2018-Apr-22 10:28N 34°36' E 135°23'0 0.1
2018-Apr-22 09:58N 34°36' E 135°23'0 0.0
2018-Apr-22 09:28N 34°36' E 135°23'0 0.1
2018-Apr-22 08:58N 34°36' E 135°23'0 0.1
2018-Apr-22 08:28N 34°36' E 135°23'0 0.1
2018-Apr-22 07:58N 34°36' E 135°23'0 0.1
2018-Apr-22 07:28N 34°36' E 135°23'0 0.1
2018-Apr-22 06:58N 34°36' E 135°23'0 0.0
2018-Apr-22 06:28N 34°36' E 135°23'0 0.0
2018-Apr-22 05:58N 34°36' E 135°23'0 0.0
2018-Apr-22 05:28N 34°36' E 135°23'0 0.0
2018-Apr-22 04:58N 34°36' E 135°23'0 0.0
2018-Apr-22 04:28N 34°36' E 135°23'0 0.0
2018-Apr-22 03:58N 34°36' E 135°23'0 0.0
2018-Apr-22 03:28N 34°36' E 135°23'0 0.0
2018-Apr-22 02:58N 34°36' E 135°23'0 0.1
2018-Apr-22 02:28N 34°36' E 135°23'0 0.4
2018-Apr-22 02:00N 34°36' E 135°22'2 4.3
2018-Apr-22 01:30N 34°34' E 135°20'3 5.4
2018-Apr-22 01:00N 34°33' E 135°18'4 7.8
2018-Apr-22 00:30N 34°30' E 135°14'4 7.7
2018-Apr-22 00:00N 34°27' E 135°11'1 1.1
2018-Apr-21 23:30N 34°27' E 135°10'3 5.3
2018-Apr-21 23:00N 34°25' E 135°08'510.2
2018-Apr-21 22:30N 34°22' E 135°03'5 9.6
2018-Apr-21 22:00N 34°18' E 134°60'3 6.6
2018-Apr-21 21:30N 34°15' E 134°60'5 9.3
2018-Apr-21 21:00N 34°10' E 134°59'612.2
2018-Apr-21 20:30N 34°04' E 134°57'612.1
2018-Apr-21 20:00N 33°58' E 134°57'611.5
2018-Apr-21 19:30N 33°53' E 134°55'611.8
2018-Apr-21 19:00N 33°47' E 134°53'611.8
2018-Apr-21 18:30N 33°43' E 134°47'612.2
2018-Apr-21 17:59N 33°38' E 134°42'612.2
2018-Apr-21 17:30N 33°34' E 134°38'612.3
2018-Apr-21 17:00N 33°29' E 134°33'613.0
2018-Apr-21 16:30N 33°24' E 134°28'612.5
2018-Apr-21 16:00N 33°19' E 134°24'  
Track history (hours):
 
Tides and Currents Weather Stations Pressure Air Temp Water Temp Dewpoint Dewpoint Depression Visibility Wind Speed Wind Dir Waves Ship Positions

Matsushima

Last reported at 2018-Apr-23 06:59 UTC. Time now 2018-Apr-23 07:19 UTC.
Position N 34°36' E 135°23'.

Length 125 m; draft 5.5 m.

MMSI: 352835000.

Date/timePositionNaut miles runAvg speedWind from/ knotsBaromVisibWave heightAir tempDewpointWater temp
2018-Apr-23 06:59N 34°36' E 135°23'0 0.0
2018-Apr-23 06:29N 34°36' E 135°23'0 0.1
2018-Apr-23 05:58N 34°36' E 135°23'0 0.1
2018-Apr-23 05:28N 34°36' E 135°23'0 0.1
2018-Apr-23 04:58N 34°36' E 135°23'0 0.0
2018-Apr-23 04:28N 34°36' E 135°23'0 0.1
2018-Apr-23 03:58N 34°36' E 135°23'0 0.0
2018-Apr-23 03:28N 34°36' E 135°23'0 0.0
2018-Apr-23 02:59N 34°36' E 135°23'0 0.0
2018-Apr-23 02:28N 34°36' E 135°23'0 0.0
2018-Apr-23 01:59N 34°36' E 135°23'0 0.0
2018-Apr-23 01:29N 34°36' E 135°23'0 0.0
2018-Apr-23 00:58N 34°36' E 135°23'0 0.1
2018-Apr-23 00:28N 34°36' E 135°22'0 0.1
2018-Apr-22 23:58N 34°36' E 135°22'0 0.1
2018-Apr-22 23:28N 34°36' E 135°22'0 0.1
2018-Apr-22 22:58N 34°36' E 135°22'0 0.0
2018-Apr-22 22:28N 34°36' E 135°22'0 0.1
2018-Apr-22 21:58N 34°36' E 135°22'0 0.0
2018-Apr-22 21:29N 34°36' E 135°22'0 0.0
2018-Apr-22 20:58N 34°36' E 135°22'0 0.0
2018-Apr-22 20:28N 34°36' E 135°22'0 0.1
2018-Apr-22 19:58N 34°36' E 135°22'0 0.0
2018-Apr-22 19:28N 34°36' E 135°22'0 0.0
2018-Apr-22 18:58N 34°36' E 135°22'0 0.0
2018-Apr-22 18:28N 34°36' E 135°22'0 0.1
2018-Apr-22 17:56N 34°36' E 135°23'0 0.1
2018-Apr-22 17:28N 34°36' E 135°23'0 0.1
2018-Apr-22 16:58N 34°36' E 135°23'0 0.1
2018-Apr-22 16:28N 34°36' E 135°23'0 0.1
2018-Apr-22 15:58N 34°36' E 135°22'0 0.0
2018-Apr-22 15:28N 34°36' E 135°22'0 0.1
2018-Apr-22 14:58N 34°36' E 135°23'0 0.0
2018-Apr-22 14:28N 34°36' E 135°23'0 0.0
2018-Apr-22 13:58N 34°36' E 135°23'0 0.0
2018-Apr-22 13:28N 34°36' E 135°23'0 0.0
2018-Apr-22 12:58N 34°36' E 135°23'0 0.0
2018-Apr-22 12:28N 34°36' E 135°23'0 0.0
2018-Apr-22 11:58N 34°36' E 135°23'0 0.0
2018-Apr-22 11:28N 34°36' E 135°23'0 0.0
2018-Apr-22 10:58N 34°36' E 135°23'0 0.0
2018-Apr-22 10:28N 34°36' E 135°23'0 0.1
2018-Apr-22 09:58N 34°36' E 135°23'0 0.0
2018-Apr-22 09:28N 34°36' E 135°23'0 0.1
2018-Apr-22 08:58N 34°36' E 135°23'0 0.1
2018-Apr-22 08:28N 34°36' E 135°23'0 0.1
2018-Apr-22 07:58N 34°36' E 135°23'0 0.1
2018-Apr-22 07:28N 34°36' E 135°23'0 0.1
2018-Apr-22 06:58N 34°36' E 135°23'0 0.0
2018-Apr-22 06:28N 34°36' E 135°23'0 0.0
2018-Apr-22 05:58N 34°36' E 135°23'0 0.0
2018-Apr-22 05:28N 34°36' E 135°23'0 0.0
2018-Apr-22 04:58N 34°36' E 135°23'0 0.0
2018-Apr-22 04:28N 34°36' E 135°23'0 0.0
2018-Apr-22 03:58N 34°36' E 135°23'0 0.0
2018-Apr-22 03:28N 34°36' E 135°23'0 0.0
2018-Apr-22 02:58N 34°36' E 135°23'0 0.1
2018-Apr-22 02:28N 34°36' E 135°23'0 0.4
2018-Apr-22 02:00N 34°36' E 135°22'2 4.3
2018-Apr-22 01:30N 34°34' E 135°20'3 5.4
2018-Apr-22 01:00N 34°33' E 135°18'4 7.8
2018-Apr-22 00:30N 34°30' E 135°14'4 7.7
2018-Apr-22 00:00N 34°27' E 135°11'1 1.1
2018-Apr-21 23:30N 34°27' E 135°10'3 5.3
2018-Apr-21 23:00N 34°25' E 135°08'510.2
2018-Apr-21 22:30N 34°22' E 135°03'5 9.6
2018-Apr-21 22:00N 34°18' E 134°60'3 6.6
2018-Apr-21 21:30N 34°15' E 134°60'5 9.3
2018-Apr-21 21:00N 34°10' E 134°59'612.2
2018-Apr-21 20:30N 34°04' E 134°57'612.1
2018-Apr-21 20:00N 33°58' E 134°57'611.5
2018-Apr-21 19:30N 33°53' E 134°55'611.8
2018-Apr-21 19:00N 33°47' E 134°53'611.8
2018-Apr-21 18:30N 33°43' E 134°47'612.2
2018-Apr-21 17:59N 33°38' E 134°42'612.2
2018-Apr-21 17:30N 33°34' E 134°38'612.3
2018-Apr-21 17:00N 33°29' E 134°33'613.0
2018-Apr-21 16:30N 33°24' E 134°28'612.5
2018-Apr-21 16:00N 33°19' E 134°24'  

Dump ship's entire track history